sensor_id;sensor_type;location;lat;lon;timestamp;P1;durP1;ratioP1;P2;durP2;ratioP2
51943;SDS011;37969;53.132;6.370;2023-10-31T00:00:07;3.90;;;1.77;;
51943;SDS011;37969;53.132;6.370;2023-10-31T00:02:37;4.55;;;1.40;;
51943;SDS011;37969;53.132;6.370;2023-10-31T00:05:03;5.22;;;1.40;;
51943;SDS011;37969;53.132;6.370;2023-10-31T00:07:32;7.00;;;1.40;;
51943;SDS011;37969;53.132;6.370;2023-10-31T00:10:00;7.10;;;1.60;;
51943;SDS011;37969;53.132;6.370;2023-10-31T00:12:26;3.92;;;1.23;;
51943;SDS011;37969;53.132;6.370;2023-10-31T00:14:53;6.75;;;1.42;;
51943;SDS011;37969;53.132;6.370;2023-10-31T00:17:25;7.47;;;1.40;;
51943;SDS011;37969;53.132;6.370;2023-10-31T00:20:00;6.45;;;1.67;;
51943;SDS011;37969;53.132;6.370;2023-10-31T00:22:26;5.75;;;2.20;;
51943;SDS011;37969;53.132;6.370;2023-10-31T00:24:55;5.82;;;2.10;;
51943;SDS011;37969;53.132;6.370;2023-10-31T00:27:25;3.92;;;1.90;;
51943;SDS011;37969;53.132;6.370;2023-10-31T00:29:52;12.60;;;5.90;;
51943;SDS011;37969;53.132;6.370;2023-10-31T00:32:18;21.30;;;13.70;;
51943;SDS011;37969;53.132;6.370;2023-10-31T00:34:44;8.15;;;3.20;;
51943;SDS011;37969;53.132;6.370;2023-10-31T00:37:12;14.40;;;2.72;;
51943;SDS011;37969;53.132;6.370;2023-10-31T00:39:38;8.90;;;3.05;;
51943;SDS011;37969;53.132;6.370;2023-10-31T00:42:06;10.02;;;2.88;;
51943;SDS011;37969;53.132;6.370;2023-10-31T00:44:33;3.40;;;1.80;;
51943;SDS011;37969;53.132;6.370;2023-10-31T00:46:59;4.78;;;1.75;;
51943;SDS011;37969;53.132;6.370;2023-10-31T00:49:25;5.35;;;2.20;;
51943;SDS011;37969;53.132;6.370;2023-10-31T00:51:52;7.57;;;2.42;;
51943;SDS011;37969;53.132;6.370;2023-10-31T00:54:19;10.52;;;2.60;;
51943;SDS011;37969;53.132;6.370;2023-10-31T00:56:46;9.15;;;2.60;;
51943;SDS011;37969;53.132;6.370;2023-10-31T00:59:13;9.40;;;2.67;;
51943;SDS011;37969;53.132;6.370;2023-10-31T01:01:42;11.07;;;3.35;;
51943;SDS011;37969;53.132;6.370;2023-10-31T01:04:08;11.05;;;3.40;;
51943;SDS011;37969;53.132;6.370;2023-10-31T01:06:40;11.80;;;3.67;;
51943;SDS011;37969;53.132;6.370;2023-10-31T01:09:08;12.82;;;4.03;;
51943;SDS011;37969;53.132;6.370;2023-10-31T01:11:34;10.43;;;2.95;;
51943;SDS011;37969;53.132;6.370;2023-10-31T01:14:00;10.40;;;2.90;;
51943;SDS011;37969;53.132;6.370;2023-10-31T01:16:28;6.88;;;2.80;;
51943;SDS011;37969;53.132;6.370;2023-10-31T01:18:54;10.68;;;2.53;;
51943;SDS011;37969;53.132;6.370;2023-10-31T01:21:27;10.45;;;2.92;;
51943;SDS011;37969;53.132;6.370;2023-10-31T01:23:53;10.30;;;3.10;;
51943;SDS011;37969;53.132;6.370;2023-10-31T01:26:20;9.77;;;3.22;;
51943;SDS011;37969;53.132;6.370;2023-10-31T01:28:50;8.27;;;3.28;;
51943;SDS011;37969;53.132;6.370;2023-10-31T01:31:25;10.95;;;2.85;;
51943;SDS011;37969;53.132;6.370;2023-10-31T01:33:52;8.65;;;2.53;;
51943;SDS011;37969;53.132;6.370;2023-10-31T01:36:23;8.10;;;2.90;;
51943;SDS011;37969;53.132;6.370;2023-10-31T01:38:53;12.43;;;2.78;;
51943;SDS011;37969;53.132;6.370;2023-10-31T01:41:22;7.27;;;2.10;;
51943;SDS011;37969;53.132;6.370;2023-10-31T01:43:48;7.97;;;1.90;;
51943;SDS011;37969;53.132;6.370;2023-10-31T01:46:16;10.00;;;1.90;;
51943;SDS011;37969;53.132;6.370;2023-10-31T01:48:43;6.60;;;1.80;;
51943;SDS011;37969;53.132;6.370;2023-10-31T01:51:12;10.67;;;2.30;;
51943;SDS011;37969;53.132;6.370;2023-10-31T01:53:39;9.57;;;1.90;;
51943;SDS011;37969;53.132;6.370;2023-10-31T01:56:09;5.90;;;1.58;;
51943;SDS011;37969;53.132;6.370;2023-10-31T01:58:37;9.63;;;1.90;;
51943;SDS011;37969;53.132;6.370;2023-10-31T02:01:04;8.07;;;1.65;;
51943;SDS011;37969;53.132;6.370;2023-10-31T02:03:37;9.73;;;1.63;;
51943;SDS011;37969;53.132;6.370;2023-10-31T02:06:05;12.00;;;1.85;;
51943;SDS011;37969;53.132;6.370;2023-10-31T02:08:31;8.52;;;2.58;;
51943;SDS011;37969;53.132;6.370;2023-10-31T02:11:00;7.47;;;2.60;;
51943;SDS011;37969;53.132;6.370;2023-10-31T02:13:27;12.35;;;3.33;;
51943;SDS011;37969;53.132;6.370;2023-10-31T02:15:53;9.05;;;3.13;;
51943;SDS011;37969;53.132;6.370;2023-10-31T02:18:19;9.63;;;3.85;;
51943;SDS011;37969;53.132;6.370;2023-10-31T02:20:46;11.75;;;4.28;;
51943;SDS011;37969;53.132;6.370;2023-10-31T02:23:17;11.57;;;4.25;;
51943;SDS011;37969;53.132;6.370;2023-10-31T02:25:48;13.73;;;4.80;;
51943;SDS011;37969;53.132;6.370;2023-10-31T02:28:15;15.07;;;5.30;;
51943;SDS011;37969;53.132;6.370;2023-10-31T02:30:45;12.65;;;5.10;;
51943;SDS011;37969;53.132;6.370;2023-10-31T02:33:11;20.58;;;5.70;;
51943;SDS011;37969;53.132;6.370;2023-10-31T02:35:37;13.85;;;5.80;;
51943;SDS011;37969;53.132;6.370;2023-10-31T02:38:03;15.40;;;5.75;;
51943;SDS011;37969;53.132;6.370;2023-10-31T02:40:30;13.85;;;6.20;;
51943;SDS011;37969;53.132;6.370;2023-10-31T02:42:56;14.32;;;6.05;;
51943;SDS011;37969;53.132;6.370;2023-10-31T02:45:25;12.23;;;6.63;;
51943;SDS011;37969;53.132;6.370;2023-10-31T02:47:52;15.55;;;6.72;;
51943;SDS011;37969;53.132;6.370;2023-10-31T02:50:21;9.90;;;5.90;;
51943;SDS011;37969;53.132;6.370;2023-10-31T02:52:48;15.10;;;6.18;;
51943;SDS011;37969;53.132;6.370;2023-10-31T02:55:19;18.65;;;7.90;;
51943;SDS011;37969;53.132;6.370;2023-10-31T02:57:50;18.85;;;8.20;;
51943;SDS011;37969;53.132;6.370;2023-10-31T03:00:16;13.50;;;7.28;;
51943;SDS011;37969;53.132;6.370;2023-10-31T03:02:45;19.50;;;8.48;;
51943;SDS011;37969;53.132;6.370;2023-10-31T03:05:13;21.35;;;8.70;;
51943;SDS011;37969;53.132;6.370;2023-10-31T03:07:40;20.73;;;8.88;;
51943;SDS011;37969;53.132;6.370;2023-10-31T03:10:07;13.95;;;8.02;;
51943;SDS011;37969;53.132;6.370;2023-10-31T03:12:33;20.65;;;8.75;;
51943;SDS011;37969;53.132;6.370;2023-10-31T03:15:02;24.65;;;8.50;;
51943;SDS011;37969;53.132;6.370;2023-10-31T03:17:35;20.00;;;9.00;;
51943;SDS011;37969;53.132;6.370;2023-10-31T03:20:07;21.33;;;8.65;;
51943;SDS011;37969;53.132;6.370;2023-10-31T03:22:33;18.02;;;9.07;;
51943;SDS011;37969;53.132;6.370;2023-10-31T03:25:01;18.63;;;8.20;;
51943;SDS011;37969;53.132;6.370;2023-10-31T03:27:31;18.75;;;8.77;;
51943;SDS011;37969;53.132;6.370;2023-10-31T03:29:59;14.73;;;7.78;;
51943;SDS011;37969;53.132;6.370;2023-10-31T03:32:25;13.20;;;7.60;;
51943;SDS011;37969;53.132;6.370;2023-10-31T03:34:54;13.07;;;7.28;;
51943;SDS011;37969;53.132;6.370;2023-10-31T03:37:24;16.63;;;7.40;;
51943;SDS011;37969;53.132;6.370;2023-10-31T03:39:53;18.92;;;7.13;;
51943;SDS011;37969;53.132;6.370;2023-10-31T03:42:22;16.63;;;7.05;;
51943;SDS011;37969;53.132;6.370;2023-10-31T03:44:52;13.77;;;5.50;;
51943;SDS011;37969;53.132;6.370;2023-10-31T03:47:19;10.10;;;4.38;;
51943;SDS011;37969;53.132;6.370;2023-10-31T03:49:47;10.93;;;5.20;;
51943;SDS011;37969;53.132;6.370;2023-10-31T03:52:16;11.07;;;5.40;;
51943;SDS011;37969;53.132;6.370;2023-10-31T03:54:42;12.48;;;5.70;;
51943;SDS011;37969;53.132;6.370;2023-10-31T03:57:09;10.82;;;5.43;;
51943;SDS011;37969;53.132;6.370;2023-10-31T03:59:37;15.10;;;5.90;;
51943;SDS011;37969;53.132;6.370;2023-10-31T04:02:04;14.90;;;5.88;;
51943;SDS011;37969;53.132;6.370;2023-10-31T04:04:30;17.90;;;6.03;;
51943;SDS011;37969;53.132;6.370;2023-10-31T04:06:59;13.32;;;5.55;;
51943;SDS011;37969;53.132;6.370;2023-10-31T04:09:26;16.05;;;6.28;;
51943;SDS011;37969;53.132;6.370;2023-10-31T04:11:52;14.63;;;6.28;;
51943;SDS011;37969;53.132;6.370;2023-10-31T04:14:21;14.27;;;5.70;;
51943;SDS011;37969;53.132;6.370;2023-10-31T04:16:48;11.65;;;5.60;;
51943;SDS011;37969;53.132;6.370;2023-10-31T04:19:17;15.13;;;5.53;;
51943;SDS011;37969;53.132;6.370;2023-10-31T04:21:47;14.98;;;5.50;;
51943;SDS011;37969;53.132;6.370;2023-10-31T04:24:17;16.45;;;5.18;;
51943;SDS011;37969;53.132;6.370;2023-10-31T04:26:43;11.45;;;4.55;;
51943;SDS011;37969;53.132;6.370;2023-10-31T04:29:09;10.95;;;3.75;;
51943;SDS011;37969;53.132;6.370;2023-10-31T04:31:36;9.07;;;3.35;;
51943;SDS011;37969;53.132;6.370;2023-10-31T04:34:03;8.80;;;3.00;;
51943;SDS011;37969;53.132;6.370;2023-10-31T04:36:30;5.57;;;2.90;;
51943;SDS011;37969;53.132;6.370;2023-10-31T04:38:56;5.88;;;2.40;;
51943;SDS011;37969;53.132;6.370;2023-10-31T04:41:24;11.73;;;2.20;;
51943;SDS011;37969;53.132;6.370;2023-10-31T04:43:55;5.60;;;1.58;;
51943;SDS011;37969;53.132;6.370;2023-10-31T04:46:24;5.80;;;1.92;;
51943;SDS011;37969;53.132;6.370;2023-10-31T04:48:56;3.97;;;1.70;;
51943;SDS011;37969;53.132;6.370;2023-10-31T04:51:22;6.72;;;1.55;;
51943;SDS011;37969;53.132;6.370;2023-10-31T04:53:53;6.25;;;1.83;;
51943;SDS011;37969;53.132;6.370;2023-10-31T04:56:19;6.60;;;1.70;;
51943;SDS011;37969;53.132;6.370;2023-10-31T04:58:45;8.00;;;1.40;;
51943;SDS011;37969;53.132;6.370;2023-10-31T05:01:13;10.10;;;1.67;;
51943;SDS011;37969;53.132;6.370;2023-10-31T05:03:40;4.88;;;1.80;;
51943;SDS011;37969;53.132;6.370;2023-10-31T05:06:07;4.35;;;1.80;;
51943;SDS011;37969;53.132;6.370;2023-10-31T05:08:33;5.75;;;1.70;;
51943;SDS011;37969;53.132;6.370;2023-10-31T05:11:01;6.55;;;2.00;;
51943;SDS011;37969;53.132;6.370;2023-10-31T05:13:33;5.78;;;2.33;;
51943;SDS011;37969;53.132;6.370;2023-10-31T05:16:05;6.10;;;2.15;;
51943;SDS011;37969;53.132;6.370;2023-10-31T05:18:38;4.80;;;2.45;;
51943;SDS011;37969;53.132;6.370;2023-10-31T05:21:06;4.88;;;1.98;;
51943;SDS011;37969;53.132;6.370;2023-10-31T05:23:35;4.13;;;1.85;;
51943;SDS011;37969;53.132;6.370;2023-10-31T05:26:04;5.75;;;1.27;;
51943;SDS011;37969;53.132;6.370;2023-10-31T05:28:31;3.03;;;1.30;;
51943;SDS011;37969;53.132;6.370;2023-10-31T05:30:57;6.00;;;1.80;;
51943;SDS011;37969;53.132;6.370;2023-10-31T05:33:24;5.10;;;1.48;;
51943;SDS011;37969;53.132;6.370;2023-10-31T05:35:50;4.60;;;1.55;;
51943;SDS011;37969;53.132;6.370;2023-10-31T05:38:22;6.72;;;1.60;;
51943;SDS011;37969;53.132;6.370;2023-10-31T05:40:49;4.82;;;1.98;;
51943;SDS011;37969;53.132;6.370;2023-10-31T05:43:21;6.75;;;2.30;;
51943;SDS011;37969;53.132;6.370;2023-10-31T05:45:50;4.93;;;1.88;;
51943;SDS011;37969;53.132;6.370;2023-10-31T05:48:23;10.00;;;2.40;;
51943;SDS011;37969;53.132;6.370;2023-10-31T05:50:50;5.20;;;2.63;;
51943;SDS011;37969;53.132;6.370;2023-10-31T05:53:16;8.15;;;3.10;;
51943;SDS011;37969;53.132;6.370;2023-10-31T05:55:45;5.68;;;2.72;;
51943;SDS011;37969;53.132;6.370;2023-10-31T05:58:11;7.10;;;2.83;;
51943;SDS011;37969;53.132;6.370;2023-10-31T06:00:38;5.50;;;2.72;;
51943;SDS011;37969;53.132;6.370;2023-10-31T06:03:04;5.38;;;2.47;;
51943;SDS011;37969;53.132;6.370;2023-10-31T06:05:35;4.18;;;2.60;;
51943;SDS011;37969;53.132;6.370;2023-10-31T06:08:01;4.03;;;2.50;;
51943;SDS011;37969;53.132;6.370;2023-10-31T06:10:31;6.35;;;2.80;;
51943;SDS011;37969;53.132;6.370;2023-10-31T06:12:58;7.70;;;3.10;;
51943;SDS011;37969;53.132;6.370;2023-10-31T06:15:28;6.50;;;3.17;;
51943;SDS011;37969;53.132;6.370;2023-10-31T06:17:58;8.65;;;3.50;;
51943;SDS011;37969;53.132;6.370;2023-10-31T06:20:25;8.10;;;3.53;;
51943;SDS011;37969;53.132;6.370;2023-10-31T06:22:52;9.25;;;4.00;;
51943;SDS011;37969;53.132;6.370;2023-10-31T06:25:19;9.00;;;4.63;;
51943;SDS011;37969;53.132;6.370;2023-10-31T06:27:45;14.77;;;4.55;;
51943;SDS011;37969;53.132;6.370;2023-10-31T06:30:15;10.07;;;4.45;;
51943;SDS011;37969;53.132;6.370;2023-10-31T06:32:41;7.93;;;4.80;;
51943;SDS011;37969;53.132;6.370;2023-10-31T06:35:08;12.05;;;4.22;;
51943;SDS011;37969;53.132;6.370;2023-10-31T06:37:38;9.68;;;4.57;;
51943;SDS011;37969;53.132;6.370;2023-10-31T06:40:06;9.98;;;4.68;;
51943;SDS011;37969;53.132;6.370;2023-10-31T06:42:32;12.60;;;5.63;;
51943;SDS011;37969;53.132;6.370;2023-10-31T06:44:58;10.68;;;5.03;;
51943;SDS011;37969;53.132;6.370;2023-10-31T06:47:25;9.63;;;5.35;;
51943;SDS011;37969;53.132;6.370;2023-10-31T06:52:25;8.63;;;5.03;;
51943;SDS011;37969;53.132;6.370;2023-10-31T06:54:55;13.50;;;5.68;;
51943;SDS011;37969;53.132;6.370;2023-10-31T06:57:21;7.60;;;4.97;;
51943;SDS011;37969;53.132;6.370;2023-10-31T06:59:48;10.77;;;4.57;;
51943;SDS011;37969;53.132;6.370;2023-10-31T07:02:14;10.82;;;4.82;;
51943;SDS011;37969;53.132;6.370;2023-10-31T07:04:42;10.43;;;4.97;;
51943;SDS011;37969;53.132;6.370;2023-10-31T07:07:08;9.00;;;4.82;;
51943;SDS011;37969;53.132;6.370;2023-10-31T07:12:04;15.60;;;5.63;;
51943;SDS011;37969;53.132;6.370;2023-10-31T07:14:31;10.27;;;5.32;;
51943;SDS011;37969;53.132;6.370;2023-10-31T07:17:01;11.73;;;4.80;;
51943;SDS011;37969;53.132;6.370;2023-10-31T07:19:29;14.02;;;5.72;;
51943;SDS011;37969;53.132;6.370;2023-10-31T07:21:55;9.82;;;4.60;;
51943;SDS011;37969;53.132;6.370;2023-10-31T07:24:21;14.98;;;5.07;;
51943;SDS011;37969;53.132;6.370;2023-10-31T07:26:47;9.05;;;4.88;;
51943;SDS011;37969;53.132;6.370;2023-10-31T07:29:13;9.88;;;4.15;;
51943;SDS011;37969;53.132;6.370;2023-10-31T07:31:45;11.75;;;3.35;;
51943;SDS011;37969;53.132;6.370;2023-10-31T07:34:12;9.13;;;3.90;;
51943;SDS011;37969;53.132;6.370;2023-10-31T07:36:41;9.25;;;2.47;;
51943;SDS011;37969;53.132;6.370;2023-10-31T07:39:12;9.63;;;2.20;;
51943;SDS011;37969;53.132;6.370;2023-10-31T07:44:08;10.23;;;2.50;;
51943;SDS011;37969;53.132;6.370;2023-10-31T07:46:37;6.53;;;2.30;;
51943;SDS011;37969;53.132;6.370;2023-10-31T07:49:07;10.90;;;2.55;;
51943;SDS011;37969;53.132;6.370;2023-10-31T07:51:35;5.38;;;1.60;;
51943;SDS011;37969;53.132;6.370;2023-10-31T07:54:07;9.23;;;1.75;;
51943;SDS011;37969;53.132;6.370;2023-10-31T07:56:34;7.43;;;2.08;;
51943;SDS011;37969;53.132;6.370;2023-10-31T07:59:01;4.93;;;1.80;;
51943;SDS011;37969;53.132;6.370;2023-10-31T08:01:31;5.13;;;2.00;;
51943;SDS011;37969;53.132;6.370;2023-10-31T08:04:00;5.95;;;1.30;;
51943;SDS011;37969;53.132;6.370;2023-10-31T08:06:29;7.88;;;1.40;;
51943;SDS011;37969;53.132;6.370;2023-10-31T08:08:58;10.85;;;1.90;;
51943;SDS011;37969;53.132;6.370;2023-10-31T08:11:24;5.88;;;1.40;;
51943;SDS011;37969;53.132;6.370;2023-10-31T08:13:51;6.90;;;1.50;;
51943;SDS011;37969;53.132;6.370;2023-10-31T08:16:19;8.27;;;1.42;;
51943;SDS011;37969;53.132;6.370;2023-10-31T08:18:48;6.93;;;1.42;;
51943;SDS011;37969;53.132;6.370;2023-10-31T08:21:15;5.93;;;1.20;;
51943;SDS011;37969;53.132;6.370;2023-10-31T08:23:44;3.90;;;0.60;;
51943;SDS011;37969;53.132;6.370;2023-10-31T08:26:12;2.47;;;0.80;;
51943;SDS011;37969;53.132;6.370;2023-10-31T08:28:39;3.65;;;0.93;;
51943;SDS011;37969;53.132;6.370;2023-10-31T08:31:06;5.35;;;1.08;;
51943;SDS011;37969;53.132;6.370;2023-10-31T08:33:33;3.08;;;0.70;;
51943;SDS011;37969;53.132;6.370;2023-10-31T08:36:00;2.10;;;0.70;;
51943;SDS011;37969;53.132;6.370;2023-10-31T08:38:27;3.40;;;0.60;;
51943;SDS011;37969;53.132;6.370;2023-10-31T08:40:53;4.82;;;0.60;;
51943;SDS011;37969;53.132;6.370;2023-10-31T08:43:21;4.78;;;1.02;;
51943;SDS011;37969;53.132;6.370;2023-10-31T08:45:52;4.82;;;1.33;;
51943;SDS011;37969;53.132;6.370;2023-10-31T08:48:19;3.75;;;1.05;;
51943;SDS011;37969;53.132;6.370;2023-10-31T08:50:47;6.35;;;1.70;;
51943;SDS011;37969;53.132;6.370;2023-10-31T08:53:14;11.68;;;1.88;;
51943;SDS011;37969;53.132;6.370;2023-10-31T08:55:44;14.10;;;2.20;;
51943;SDS011;37969;53.132;6.370;2023-10-31T08:58:11;15.65;;;2.33;;
51943;SDS011;37969;53.132;6.370;2023-10-31T09:00:43;13.75;;;1.73;;
51943;SDS011;37969;53.132;6.370;2023-10-31T09:03:09;17.73;;;1.95;;
51943;SDS011;37969;53.132;6.370;2023-10-31T09:05:35;11.23;;;2.10;;
51943;SDS011;37969;53.132;6.370;2023-10-31T09:08:08;8.70;;;1.73;;
51943;SDS011;37969;53.132;6.370;2023-10-31T09:10:36;8.32;;;1.13;;
51943;SDS011;37969;53.132;6.370;2023-10-31T09:13:03;8.70;;;1.27;;
51943;SDS011;37969;53.132;6.370;2023-10-31T09:15:30;8.75;;;1.88;;
51943;SDS011;37969;53.132;6.370;2023-10-31T09:17:56;6.18;;;1.30;;
51943;SDS011;37969;53.132;6.370;2023-10-31T09:20:22;8.73;;;1.13;;
51943;SDS011;37969;53.132;6.370;2023-10-31T09:22:50;9.55;;;1.30;;
51943;SDS011;37969;53.132;6.370;2023-10-31T09:25:17;10.20;;;1.83;;
51943;SDS011;37969;53.132;6.370;2023-10-31T09:27:43;7.68;;;1.92;;
51943;SDS011;37969;53.132;6.370;2023-10-31T09:30:11;9.48;;;2.00;;
51943;SDS011;37969;53.132;6.370;2023-10-31T09:32:37;8.90;;;1.60;;
51943;SDS011;37969;53.132;6.370;2023-10-31T09:35:06;2.72;;;1.60;;
51943;SDS011;37969;53.132;6.370;2023-10-31T09:37:34;11.52;;;4.85;;
51943;SDS011;37969;53.132;6.370;2023-10-31T09:40:00;8.90;;;2.28;;
51943;SDS011;37969;53.132;6.370;2023-10-31T09:42:27;9.98;;;4.35;;
51943;SDS011;37969;53.132;6.370;2023-10-31T09:44:59;7.22;;;2.88;;
51943;SDS011;37969;53.132;6.370;2023-10-31T09:47:25;11.85;;;4.45;;
51943;SDS011;37969;53.132;6.370;2023-10-31T09:49:55;21.10;;;11.32;;
51943;SDS011;37969;53.132;6.370;2023-10-31T09:52:23;5.18;;;1.17;;
51943;SDS011;37969;53.132;6.370;2023-10-31T09:54:55;7.90;;;3.13;;
51943;SDS011;37969;53.132;6.370;2023-10-31T09:57:23;7.45;;;2.47;;
51943;SDS011;37969;53.132;6.370;2023-10-31T09:59:51;10.93;;;3.70;;
51943;SDS011;37969;53.132;6.370;2023-10-31T10:02:25;6.80;;;1.42;;
51943;SDS011;37969;53.132;6.370;2023-10-31T10:04:55;8.55;;;3.22;;
51943;SDS011;37969;53.132;6.370;2023-10-31T10:07:21;13.50;;;2.03;;
51943;SDS011;37969;53.132;6.370;2023-10-31T10:09:47;5.57;;;1.88;;
51943;SDS011;37969;53.132;6.370;2023-10-31T10:12:18;10.55;;;5.05;;
51943;SDS011;37969;53.132;6.370;2023-10-31T10:14:45;7.88;;;1.63;;
51943;SDS011;37969;53.132;6.370;2023-10-31T10:17:16;10.23;;;3.03;;
51943;SDS011;37969;53.132;6.370;2023-10-31T10:19:43;9.57;;;1.83;;
51943;SDS011;37969;53.132;6.370;2023-10-31T10:22:12;6.57;;;1.02;;
51943;SDS011;37969;53.132;6.370;2023-10-31T10:24:42;6.32;;;1.00;;
51943;SDS011;37969;53.132;6.370;2023-10-31T10:27:14;9.80;;;2.28;;
51943;SDS011;37969;53.132;6.370;2023-10-31T10:29:42;10.48;;;3.03;;
51943;SDS011;37969;53.132;6.370;2023-10-31T10:32:12;12.10;;;3.70;;
51943;SDS011;37969;53.132;6.370;2023-10-31T10:34:38;14.25;;;4.95;;
51943;SDS011;37969;53.132;6.370;2023-10-31T10:37:13;6.90;;;1.67;;
51943;SDS011;37969;53.132;6.370;2023-10-31T10:39:39;6.75;;;1.80;;
51943;SDS011;37969;53.132;6.370;2023-10-31T10:42:09;14.65;;;2.45;;
51943;SDS011;37969;53.132;6.370;2023-10-31T10:44:37;13.68;;;1.80;;
51943;SDS011;37969;53.132;6.370;2023-10-31T10:47:05;7.70;;;1.75;;
51943;SDS011;37969;53.132;6.370;2023-10-31T10:49:35;5.85;;;2.00;;
51943;SDS011;37969;53.132;6.370;2023-10-31T10:52:06;10.20;;;2.08;;
51943;SDS011;37969;53.132;6.370;2023-10-31T10:54:37;6.65;;;3.10;;
51943;SDS011;37969;53.132;6.370;2023-10-31T10:57:15;8.82;;;2.10;;
51943;SDS011;37969;53.132;6.370;2023-10-31T10:59:47;8.73;;;3.70;;
51943;SDS011;37969;53.132;6.370;2023-10-31T11:02:16;6.45;;;3.85;;
51943;SDS011;37969;53.132;6.370;2023-10-31T11:04:44;7.22;;;2.50;;
51943;SDS011;37969;53.132;6.370;2023-10-31T11:07:11;7.82;;;2.92;;
51943;SDS011;37969;53.132;6.370;2023-10-31T11:09:43;11.10;;;2.38;;
51943;SDS011;37969;53.132;6.370;2023-10-31T11:12:11;5.95;;;1.48;;
51943;SDS011;37969;53.132;6.370;2023-10-31T11:14:38;6.15;;;0.90;;
51943;SDS011;37969;53.132;6.370;2023-10-31T11:17:14;8.85;;;1.13;;
51943;SDS011;37969;53.132;6.370;2023-10-31T11:19:42;4.13;;;1.48;;
51943;SDS011;37969;53.132;6.370;2023-10-31T11:22:09;7.25;;;2.35;;
51943;SDS011;37969;53.132;6.370;2023-10-31T11:27:08;6.10;;;1.23;;
51943;SDS011;37969;53.132;6.370;2023-10-31T11:29:36;5.97;;;1.38;;
51943;SDS011;37969;53.132;6.370;2023-10-31T11:32:07;6.25;;;1.40;;
51943;SDS011;37969;53.132;6.370;2023-10-31T11:34:37;6.55;;;1.40;;
51943;SDS011;37969;53.132;6.370;2023-10-31T11:37:20;5.20;;;1.63;;
51943;SDS011;37969;53.132;6.370;2023-10-31T11:42:37;8.98;;;2.28;;
51943;SDS011;37969;53.132;6.370;2023-10-31T11:45:03;6.28;;;2.25;;
51943;SDS011;37969;53.132;6.370;2023-10-31T11:47:50;4.30;;;1.20;;
51943;SDS011;37969;53.132;6.370;2023-10-31T11:50:17;6.80;;;1.63;;
51943;SDS011;37969;53.132;6.370;2023-10-31T11:52:59;9.95;;;1.67;;
51943;SDS011;37969;53.132;6.370;2023-10-31T11:55:27;7.43;;;1.25;;
51943;SDS011;37969;53.132;6.370;2023-10-31T11:57:59;9.02;;;1.45;;
51943;SDS011;37969;53.132;6.370;2023-10-31T12:00:28;8.50;;;1.42;;
51943;SDS011;37969;53.132;6.370;2023-10-31T12:02:58;9.73;;;1.98;;
51943;SDS011;37969;53.132;6.370;2023-10-31T12:05:26;8.93;;;1.50;;
51943;SDS011;37969;53.132;6.370;2023-10-31T12:07:53;8.68;;;1.40;;
51943;SDS011;37969;53.132;6.370;2023-10-31T12:10:27;9.07;;;1.30;;
51943;SDS011;37969;53.132;6.370;2023-10-31T12:12:55;7.28;;;1.23;;
51943;SDS011;37969;53.132;6.370;2023-10-31T12:15:24;9.10;;;1.50;;
51943;SDS011;37969;53.132;6.370;2023-10-31T12:17:51;4.80;;;1.40;;
51943;SDS011;37969;53.132;6.370;2023-10-31T12:20:18;6.47;;;1.38;;
51943;SDS011;37969;53.132;6.370;2023-10-31T12:22:46;11.23;;;1.60;;
51943;SDS011;37969;53.132;6.370;2023-10-31T12:25:18;9.38;;;1.40;;
51943;SDS011;37969;53.132;6.370;2023-10-31T12:27:49;9.30;;;1.70;;
51943;SDS011;37969;53.132;6.370;2023-10-31T12:30:18;5.55;;;1.25;;
51943;SDS011;37969;53.132;6.370;2023-10-31T12:32:55;9.18;;;1.50;;
51943;SDS011;37969;53.132;6.370;2023-10-31T12:35:23;9.18;;;1.33;;
51943;SDS011;37969;53.132;6.370;2023-10-31T12:37:52;7.45;;;1.70;;
51943;SDS011;37969;53.132;6.370;2023-10-31T12:40:22;13.90;;;1.67;;
51943;SDS011;37969;53.132;6.370;2023-10-31T12:42:51;9.57;;;1.60;;
51943;SDS011;37969;53.132;6.370;2023-10-31T12:45:21;8.32;;;1.90;;
51943;SDS011;37969;53.132;6.370;2023-10-31T12:48:05;9.88;;;1.40;;
51943;SDS011;37969;53.132;6.370;2023-10-31T12:50:32;8.55;;;1.50;;
51943;SDS011;37969;53.132;6.370;2023-10-31T12:52:59;10.30;;;1.33;;
51943;SDS011;37969;53.132;6.370;2023-10-31T12:55:28;11.00;;;1.30;;
51943;SDS011;37969;53.132;6.370;2023-10-31T12:57:55;10.65;;;1.52;;
51943;SDS011;37969;53.132;6.370;2023-10-31T13:00:22;9.18;;;1.40;;
51943;SDS011;37969;53.132;6.370;2023-10-31T13:02:51;10.25;;;1.40;;
51943;SDS011;37969;53.132;6.370;2023-10-31T13:05:24;10.07;;;1.60;;
51943;SDS011;37969;53.132;6.370;2023-10-31T13:07:52;10.20;;;1.75;;
51943;SDS011;37969;53.132;6.370;2023-10-31T13:10:25;11.45;;;2.00;;
51943;SDS011;37969;53.132;6.370;2023-10-31T13:12:58;13.48;;;1.88;;
51943;SDS011;37969;53.132;6.370;2023-10-31T13:15:24;10.45;;;1.40;;
51943;SDS011;37969;53.132;6.370;2023-10-31T13:17:50;10.07;;;2.08;;
51943;SDS011;37969;53.132;6.370;2023-10-31T13:20:18;9.00;;;1.70;;
51943;SDS011;37969;53.132;6.370;2023-10-31T13:22:45;13.90;;;1.80;;
51943;SDS011;37969;53.132;6.370;2023-10-31T13:25:14;12.07;;;1.90;;
51943;SDS011;37969;53.132;6.370;2023-10-31T13:27:41;6.68;;;1.40;;
51943;SDS011;37969;53.132;6.370;2023-10-31T13:30:09;11.27;;;2.13;;
51943;SDS011;37969;53.132;6.370;2023-10-31T13:32:38;13.93;;;1.80;;
51943;SDS011;37969;53.132;6.370;2023-10-31T13:35:05;13.02;;;2.22;;
51943;SDS011;37969;53.132;6.370;2023-10-31T13:37:34;14.88;;;2.20;;
51943;SDS011;37969;53.132;6.370;2023-10-31T13:40:00;11.77;;;2.42;;
51943;SDS011;37969;53.132;6.370;2023-10-31T13:42:27;11.30;;;2.00;;
51943;SDS011;37969;53.132;6.370;2023-10-31T13:44:54;11.98;;;1.88;;
51943;SDS011;37969;53.132;6.370;2023-10-31T13:47:20;11.57;;;1.73;;
51943;SDS011;37969;53.132;6.370;2023-10-31T13:49:46;11.98;;;1.60;;
51943;SDS011;37969;53.132;6.370;2023-10-31T13:52:17;10.07;;;1.42;;
51943;SDS011;37969;53.132;6.370;2023-10-31T13:54:47;10.00;;;1.45;;
51943;SDS011;37969;53.132;6.370;2023-10-31T13:57:13;9.55;;;1.60;;
51943;SDS011;37969;53.132;6.370;2023-10-31T13:59:40;11.35;;;1.65;;
51943;SDS011;37969;53.132;6.370;2023-10-31T14:02:06;7.85;;;1.70;;
51943;SDS011;37969;53.132;6.370;2023-10-31T14:04:34;8.73;;;1.20;;
51943;SDS011;37969;53.132;6.370;2023-10-31T14:07:03;12.65;;;2.40;;
51943;SDS011;37969;53.132;6.370;2023-10-31T14:09:30;8.88;;;1.48;;
51943;SDS011;37969;53.132;6.370;2023-10-31T14:11:58;11.20;;;2.00;;
51943;SDS011;37969;53.132;6.370;2023-10-31T14:14:24;10.43;;;1.40;;
51943;SDS011;37969;53.132;6.370;2023-10-31T14:16:51;10.15;;;1.13;;
51943;SDS011;37969;53.132;6.370;2023-10-31T14:19:17;7.18;;;1.35;;
51943;SDS011;37969;53.132;6.370;2023-10-31T14:21:44;5.35;;;0.90;;
51943;SDS011;37969;53.132;6.370;2023-10-31T14:24:10;10.48;;;2.13;;
51943;SDS011;37969;53.132;6.370;2023-10-31T14:26:36;12.48;;;1.92;;
51943;SDS011;37969;53.132;6.370;2023-10-31T14:29:03;5.57;;;1.42;;
51943;SDS011;37969;53.132;6.370;2023-10-31T14:31:38;9.63;;;1.60;;
51943;SDS011;37969;53.132;6.370;2023-10-31T14:34:06;9.90;;;1.10;;
51943;SDS011;37969;53.132;6.370;2023-10-31T14:36:36;7.38;;;1.10;;
51943;SDS011;37969;53.132;6.370;2023-10-31T14:39:02;3.90;;;1.10;;
51943;SDS011;37969;53.132;6.370;2023-10-31T14:41:30;6.03;;;1.00;;
51943;SDS011;37969;53.132;6.370;2023-10-31T14:43:59;5.70;;;0.95;;
51943;SDS011;37969;53.132;6.370;2023-10-31T14:46:28;8.00;;;1.20;;
51943;SDS011;37969;53.132;6.370;2023-10-31T14:48:55;11.35;;;1.85;;
51943;SDS011;37969;53.132;6.370;2023-10-31T14:51:24;5.88;;;1.05;;
51943;SDS011;37969;53.132;6.370;2023-10-31T14:53:50;10.20;;;1.15;;
51943;SDS011;37969;53.132;6.370;2023-10-31T14:56:17;7.07;;;1.08;;
51943;SDS011;37969;53.132;6.370;2023-10-31T14:58:45;6.82;;;0.98;;
51943;SDS011;37969;53.132;6.370;2023-10-31T15:01:15;6.63;;;1.35;;